sensor_id;sensor_type;location;lat;lon;timestamp;temperature;humidity
68358;DHT22;55276;53.260;50.222;2022-11-20T00:01:17;-3276.20;89.30
68358;DHT22;55276;53.260;50.222;2022-11-20T00:03:44;-3276.20;89.30
68358;DHT22;55276;53.260;50.222;2022-11-20T00:06:12;-3276.20;89.50
68358;DHT22;55276;53.260;50.222;2022-11-20T00:08:39;-3276.20;89.50
68358;DHT22;55276;53.260;50.222;2022-11-20T00:11:10;-3276.20;89.60
68358;DHT22;55276;53.260;50.222;2022-11-20T00:13:37;-3276.20;89.30
68358;DHT22;55276;53.260;50.222;2022-11-20T00:16:04;-3276.20;89.30
68358;DHT22;55276;53.260;50.222;2022-11-20T00:18:32;-3276.20;89.40
68358;DHT22;55276;53.260;50.222;2022-11-20T00:21:06;-3276.20;89.30
68358;DHT22;55276;53.260;50.222;2022-11-20T00:23:32;-3276.20;89.40
68358;DHT22;55276;53.260;50.222;2022-11-20T00:26:10;-3276.20;89.40
68358;DHT22;55276;53.260;50.222;2022-11-20T00:28:37;-3276.20;89.40
68358;DHT22;55276;53.260;50.222;2022-11-20T00:31:05;-3276.20;89.50
68358;DHT22;55276;53.260;50.222;2022-11-20T00:33:32;-3276.20;89.60
68358;DHT22;55276;53.260;50.222;2022-11-20T00:36:08;-3276.20;89.50
68358;DHT22;55276;53.260;50.222;2022-11-20T00:38:35;-3276.20;89.40
68358;DHT22;55276;53.260;50.222;2022-11-20T00:41:06;-3276.20;89.50
68358;DHT22;55276;53.260;50.222;2022-11-20T00:43:32;-3276.10;89.40
68358;DHT22;55276;53.260;50.222;2022-11-20T00:46:09;-3276.10;89.50
68358;DHT22;55276;53.260;50.222;2022-11-20T00:48:35;-3276.10;89.50
68358;DHT22;55276;53.260;50.222;2022-11-20T00:51:02;-3276.10;89.60
68358;DHT22;55276;53.260;50.222;2022-11-20T00:53:28;-3276.10;89.60
68358;DHT22;55276;53.260;50.222;2022-11-20T00:56:05;-3276.10;89.70
68358;DHT22;55276;53.260;50.222;2022-11-20T00:58:34;-3276.20;89.70
68358;DHT22;55276;53.260;50.222;2022-11-20T01:03:36;-3276.20;89.90
68358;DHT22;55276;53.260;50.222;2022-11-20T01:06:04;-3276.20;89.70
68358;DHT22;55276;53.260;50.222;2022-11-20T01:08:35;-3276.20;89.70
68358;DHT22;55276;53.260;50.222;2022-11-20T01:11:03;-3276.20;89.80
68358;DHT22;55276;53.260;50.222;2022-11-20T01:13:30;-3276.20;89.70
68358;DHT22;55276;53.260;50.222;2022-11-20T01:16:11;-3276.20;89.80
68358;DHT22;55276;53.260;50.222;2022-11-20T01:18:40;-3276.20;89.80
68358;DHT22;55276;53.260;50.222;2022-11-20T01:21:15;-3276.20;89.70
68358;DHT22;55276;53.260;50.222;2022-11-20T01:23:43;-3276.10;89.70
68358;DHT22;55276;53.260;50.222;2022-11-20T01:26:12;-3276.20;89.80
68358;DHT22;55276;53.260;50.222;2022-11-20T01:28:39;-3276.20;89.90
68358;DHT22;55276;53.260;50.222;2022-11-20T01:31:24;-3276.20;90.00
68358;DHT22;55276;53.260;50.222;2022-11-20T01:33:52;-3276.30;89.90
68358;DHT22;55276;53.260;50.222;2022-11-20T01:36:20;-3276.20;89.80
68358;DHT22;55276;53.260;50.222;2022-11-20T01:38:47;-3276.30;89.90
68358;DHT22;55276;53.260;50.222;2022-11-20T01:41:15;-3276.30;89.90
68358;DHT22;55276;53.260;50.222;2022-11-20T01:44:00;-3276.30;90.00
68358;DHT22;55276;53.260;50.222;2022-11-20T01:46:27;-3276.40;89.80
68358;DHT22;55276;53.260;50.222;2022-11-20T01:49:08;-3276.30;89.90
68358;DHT22;55276;53.260;50.222;2022-11-20T01:51:44;-3276.40;89.90
68358;DHT22;55276;53.260;50.222;2022-11-20T01:54:25;-3276.30;89.80
68358;DHT22;55276;53.260;50.222;2022-11-20T01:56:57;-3276.40;90.00
68358;DHT22;55276;53.260;50.222;2022-11-20T01:59:24;-3276.40;90.00
68358;DHT22;55276;53.260;50.222;2022-11-20T02:01:52;-3276.40;89.90
68358;DHT22;55276;53.260;50.222;2022-11-20T02:04:18;-3276.30;89.80
68358;DHT22;55276;53.260;50.222;2022-11-20T02:06:59;-3276.30;89.90
68358;DHT22;55276;53.260;50.222;2022-11-20T02:09:26;-3276.30;90.00
68358;DHT22;55276;53.260;50.222;2022-11-20T02:11:53;-3276.40;90.10
68358;DHT22;55276;53.260;50.222;2022-11-20T02:14:20;-3276.40;90.00
68358;DHT22;55276;53.260;50.222;2022-11-20T02:16:48;-3276.40;90.00
68358;DHT22;55276;53.260;50.222;2022-11-20T02:19:35;-3276.40;90.10
68358;DHT22;55276;53.260;50.222;2022-11-20T02:22:16;-3276.50;90.10
68358;DHT22;55276;53.260;50.222;2022-11-20T02:24:45;-3276.60;90.10
68358;DHT22;55276;53.260;50.222;2022-11-20T02:27:16;-3276.60;90.10
68358;DHT22;55276;53.260;50.222;2022-11-20T02:30:00;-3276.60;90.20
68358;DHT22;55276;53.260;50.222;2022-11-20T02:32:48;-3276.60;90.10
68358;DHT22;55276;53.260;50.222;2022-11-20T02:37:53;-3276.60;90.00
68358;DHT22;55276;53.260;50.222;2022-11-20T02:40:19;-3276.60;89.90
68358;DHT22;55276;53.260;50.222;2022-11-20T02:42:45;-3276.60;90.10
68358;DHT22;55276;53.260;50.222;2022-11-20T02:45:12;-3276.70;90.10
68358;DHT22;55276;53.260;50.222;2022-11-20T02:47:38;-3276.70;90.20
68358;DHT22;55276;53.260;50.222;2022-11-20T02:50:05;-3276.70;90.20
68358;DHT22;55276;53.260;50.222;2022-11-20T02:52:31;0.00;90.30
68358;DHT22;55276;53.260;50.222;2022-11-20T02:55:00;0.00;90.20
68358;DHT22;55276;53.260;50.222;2022-11-20T02:57:26;0.00;90.00
68358;DHT22;55276;53.260;50.222;2022-11-20T02:59:52;0.00;90.10
68358;DHT22;55276;53.260;50.222;2022-11-20T03:02:18;0.00;90.20
68358;DHT22;55276;53.260;50.222;2022-11-20T03:04:44;0.00;90.30
68358;DHT22;55276;53.260;50.222;2022-11-20T03:07:15;0.00;90.30
68358;DHT22;55276;53.260;50.222;2022-11-20T03:09:43;0.10;90.20
68358;DHT22;55276;53.260;50.222;2022-11-20T03:12:12;0.10;90.20
68358;DHT22;55276;53.260;50.222;2022-11-20T03:14:41;0.20;90.20
68358;DHT22;55276;53.260;50.222;2022-11-20T03:17:07;0.10;90.00
68358;DHT22;55276;53.260;50.222;2022-11-20T03:19:33;0.20;90.20
68358;DHT22;55276;53.260;50.222;2022-11-20T03:22:00;0.20;90.00
68358;DHT22;55276;53.260;50.222;2022-11-20T03:24:26;0.10;89.90
68358;DHT22;55276;53.260;50.222;2022-11-20T03:26:52;0.10;89.90
68358;DHT22;55276;53.260;50.222;2022-11-20T03:29:19;0.10;90.10
68358;DHT22;55276;53.260;50.222;2022-11-20T03:31:45;0.10;90.00
68358;DHT22;55276;53.260;50.222;2022-11-20T03:34:32;0.10;90.30
68358;DHT22;55276;53.260;50.222;2022-11-20T03:36:58;0.10;90.10
68358;DHT22;55276;53.260;50.222;2022-11-20T03:39:25;0.20;90.20
68358;DHT22;55276;53.260;50.222;2022-11-20T03:41:52;0.20;90.10
68358;DHT22;55276;53.260;50.222;2022-11-20T03:44:21;0.20;90.10
68358;DHT22;55276;53.260;50.222;2022-11-20T03:46:47;0.20;90.10
68358;DHT22;55276;53.260;50.222;2022-11-20T03:49:13;0.10;90.20
68358;DHT22;55276;53.260;50.222;2022-11-20T03:51:39;0.30;90.50
68358;DHT22;55276;53.260;50.222;2022-11-20T03:54:07;0.30;90.20
68358;DHT22;55276;53.260;50.222;2022-11-20T03:56:36;0.20;90.10
68358;DHT22;55276;53.260;50.222;2022-11-20T03:59:03;0.10;90.10
68358;DHT22;55276;53.260;50.222;2022-11-20T04:01:34;0.10;90.20
68358;DHT22;55276;53.260;50.222;2022-11-20T04:04:02;0.10;90.30
68358;DHT22;55276;53.260;50.222;2022-11-20T04:06:33;0.10;90.40
68358;DHT22;55276;53.260;50.222;2022-11-20T04:08:59;0.20;90.40
68358;DHT22;55276;53.260;50.222;2022-11-20T04:11:30;0.10;90.40
68358;DHT22;55276;53.260;50.222;2022-11-20T04:13:59;0.10;90.30
68358;DHT22;55276;53.260;50.222;2022-11-20T04:16:28;0.10;90.50
68358;DHT22;55276;53.260;50.222;2022-11-20T04:18:56;0.20;90.50
68358;DHT22;55276;53.260;50.222;2022-11-20T04:21:23;0.20;90.40
68358;DHT22;55276;53.260;50.222;2022-11-20T04:23:50;0.20;90.60
68358;DHT22;55276;53.260;50.222;2022-11-20T04:26:19;0.30;90.50
68358;DHT22;55276;53.260;50.222;2022-11-20T04:28:45;0.30;90.60
68358;DHT22;55276;53.260;50.222;2022-11-20T04:31:13;0.30;90.60
68358;DHT22;55276;53.260;50.222;2022-11-20T04:33:40;0.40;90.50
68358;DHT22;55276;53.260;50.222;2022-11-20T04:36:13;0.40;90.50
68358;DHT22;55276;53.260;50.222;2022-11-20T04:38:40;0.50;90.50
68358;DHT22;55276;53.260;50.222;2022-11-20T04:41:08;0.50;90.50
68358;DHT22;55276;53.260;50.222;2022-11-20T04:43:34;0.50;90.40
68358;DHT22;55276;53.260;50.222;2022-11-20T04:46:00;0.40;90.30
68358;DHT22;55276;53.260;50.222;2022-11-20T04:48:27;0.50;90.50
68358;DHT22;55276;53.260;50.222;2022-11-20T04:50:54;0.50;90.60
68358;DHT22;55276;53.260;50.222;2022-11-20T04:53:22;0.70;90.60
68358;DHT22;55276;53.260;50.222;2022-11-20T04:55:48;0.70;90.50
68358;DHT22;55276;53.260;50.222;2022-11-20T04:58:15;0.80;90.40
68358;DHT22;55276;53.260;50.222;2022-11-20T05:00:41;0.80;90.30
68358;DHT22;55276;53.260;50.222;2022-11-20T05:03:07;0.80;90.30
68358;DHT22;55276;53.260;50.222;2022-11-20T05:05:34;0.80;90.20
68358;DHT22;55276;53.260;50.222;2022-11-20T05:08:00;0.80;90.20
68358;DHT22;55276;53.260;50.222;2022-11-20T05:10:27;0.70;89.90
68358;DHT22;55276;53.260;50.222;2022-11-20T05:12:56;0.60;90.10
68358;DHT22;55276;53.260;50.222;2022-11-20T05:15:23;0.60;90.10
68358;DHT22;55276;53.260;50.222;2022-11-20T05:17:50;0.60;90.10
68358;DHT22;55276;53.260;50.222;2022-11-20T05:20:17;0.50;90.10
68358;DHT22;55276;53.260;50.222;2022-11-20T05:22:43;0.60;90.20
68358;DHT22;55276;53.260;50.222;2022-11-20T05:25:10;0.50;90.00
68358;DHT22;55276;53.260;50.222;2022-11-20T05:27:39;0.50;90.20
68358;DHT22;55276;53.260;50.222;2022-11-20T05:30:06;0.50;90.20
68358;DHT22;55276;53.260;50.222;2022-11-20T05:32:32;0.50;90.20
68358;DHT22;55276;53.260;50.222;2022-11-20T05:34:58;0.50;90.30
68358;DHT22;55276;53.260;50.222;2022-11-20T05:37:27;0.50;90.40
68358;DHT22;55276;53.260;50.222;2022-11-20T05:39:53;0.50;90.20
68358;DHT22;55276;53.260;50.222;2022-11-20T05:42:20;0.50;90.20
68358;DHT22;55276;53.260;50.222;2022-11-20T05:45:03;0.40;90.30
68358;DHT22;55276;53.260;50.222;2022-11-20T05:47:34;0.50;90.30
68358;DHT22;55276;53.260;50.222;2022-11-20T05:50:01;0.40;90.30
68358;DHT22;55276;53.260;50.222;2022-11-20T05:52:29;0.50;90.30
68358;DHT22;55276;53.260;50.222;2022-11-20T05:54:56;0.50;90.40
68358;DHT22;55276;53.260;50.222;2022-11-20T05:57:22;0.50;90.40
68358;DHT22;55276;53.260;50.222;2022-11-20T05:59:48;0.50;90.40
68358;DHT22;55276;53.260;50.222;2022-11-20T06:02:14;0.50;90.50
68358;DHT22;55276;53.260;50.222;2022-11-20T06:04:41;0.60;90.50
68358;DHT22;55276;53.260;50.222;2022-11-20T06:07:07;0.60;90.60
68358;DHT22;55276;53.260;50.222;2022-11-20T06:09:33;0.70;90.70
68358;DHT22;55276;53.260;50.222;2022-11-20T06:11:59;0.80;90.70
68358;DHT22;55276;53.260;50.222;2022-11-20T06:14:25;0.80;90.60
68358;DHT22;55276;53.260;50.222;2022-11-20T06:16:51;0.90;90.60
68358;DHT22;55276;53.260;50.222;2022-11-20T06:19:17;1.00;90.60
68358;DHT22;55276;53.260;50.222;2022-11-20T06:21:43;1.00;90.50
68358;DHT22;55276;53.260;50.222;2022-11-20T06:24:10;1.20;90.70
68358;DHT22;55276;53.260;50.222;2022-11-20T06:26:36;1.30;90.50
68358;DHT22;55276;53.260;50.222;2022-11-20T06:29:03;1.30;90.20
68358;DHT22;55276;53.260;50.222;2022-11-20T06:31:29;1.40;90.30
68358;DHT22;55276;53.260;50.222;2022-11-20T06:33:55;1.30;90.00
68358;DHT22;55276;53.260;50.222;2022-11-20T06:36:22;1.30;90.10
68358;DHT22;55276;53.260;50.222;2022-11-20T06:38:51;1.40;90.00
68358;DHT22;55276;53.260;50.222;2022-11-20T06:41:19;1.30;89.80
68358;DHT22;55276;53.260;50.222;2022-11-20T06:43:46;1.30;89.70
68358;DHT22;55276;53.260;50.222;2022-11-20T06:46:13;1.20;89.60
68358;DHT22;55276;53.260;50.222;2022-11-20T06:48:40;1.10;89.90
68358;DHT22;55276;53.260;50.222;2022-11-20T06:51:07;1.20;90.10
68358;DHT22;55276;53.260;50.222;2022-11-20T06:53:34;1.30;90.00
68358;DHT22;55276;53.260;50.222;2022-11-20T06:56:08;1.10;89.70
68358;DHT22;55276;53.260;50.222;2022-11-20T06:58:35;1.10;89.70
68358;DHT22;55276;53.260;50.222;2022-11-20T07:01:04;1.00;89.80
68358;DHT22;55276;53.260;50.222;2022-11-20T07:03:30;1.00;89.90
68358;DHT22;55276;53.260;50.222;2022-11-20T07:05:57;1.00;90.10
68358;DHT22;55276;53.260;50.222;2022-11-20T07:08:24;1.00;90.00
68358;DHT22;55276;53.260;50.222;2022-11-20T07:10:51;1.10;90.10
68358;DHT22;55276;53.260;50.222;2022-11-20T07:13:17;1.00;89.90
68358;DHT22;55276;53.260;50.222;2022-11-20T07:15:44;1.00;90.00
68358;DHT22;55276;53.260;50.222;2022-11-20T07:18:10;1.10;90.10
68358;DHT22;55276;53.260;50.222;2022-11-20T07:20:36;1.10;90.20
68358;DHT22;55276;53.260;50.222;2022-11-20T07:23:02;1.10;90.10
68358;DHT22;55276;53.260;50.222;2022-11-20T07:25:28;1.10;90.10
68358;DHT22;55276;53.260;50.222;2022-11-20T07:27:58;1.20;90.20
68358;DHT22;55276;53.260;50.222;2022-11-20T07:30:25;1.30;90.30
68358;DHT22;55276;53.260;50.222;2022-11-20T07:32:52;1.30;90.00
68358;DHT22;55276;53.260;50.222;2022-11-20T07:35:19;1.20;89.90
68358;DHT22;55276;53.260;50.222;2022-11-20T07:37:45;1.20;90.00
68358;DHT22;55276;53.260;50.222;2022-11-20T07:40:14;1.30;90.20
68358;DHT22;55276;53.260;50.222;2022-11-20T07:42:50;1.30;90.10
68358;DHT22;55276;53.260;50.222;2022-11-20T07:45:18;1.30;90.00
68358;DHT22;55276;53.260;50.222;2022-11-20T07:47:44;1.30;90.10
68358;DHT22;55276;53.260;50.222;2022-11-20T07:50:11;1.40;90.00
68358;DHT22;55276;53.260;50.222;2022-11-20T07:52:37;1.30;89.70
68358;DHT22;55276;53.260;50.222;2022-11-20T07:55:04;1.20;89.80
68358;DHT22;55276;53.260;50.222;2022-11-20T07:57:30;1.30;90.20
68358;DHT22;55276;53.260;50.222;2022-11-20T07:59:56;1.30;90.00
68358;DHT22;55276;53.260;50.222;2022-11-20T08:02:22;1.30;90.00
68358;DHT22;55276;53.260;50.222;2022-11-20T08:04:48;1.30;89.90
68358;DHT22;55276;53.260;50.222;2022-11-20T08:07:15;1.30;90.00
68358;DHT22;55276;53.260;50.222;2022-11-20T08:09:41;1.30;90.00
68358;DHT22;55276;53.260;50.222;2022-11-20T08:12:08;1.30;90.10
68358;DHT22;55276;53.260;50.222;2022-11-20T08:14:54;1.30;90.20
68358;DHT22;55276;53.260;50.222;2022-11-20T08:17:28;1.40;90.30
68358;DHT22;55276;53.260;50.222;2022-11-20T08:19:54;1.30;90.00
68358;DHT22;55276;53.260;50.222;2022-11-20T08:22:20;1.30;90.10
68358;DHT22;55276;53.260;50.222;2022-11-20T08:24:46;1.30;90.10
68358;DHT22;55276;53.260;50.222;2022-11-20T08:27:15;1.30;90.30
68358;DHT22;55276;53.260;50.222;2022-11-20T08:29:41;1.40;90.40
68358;DHT22;55276;53.260;50.222;2022-11-20T08:32:07;1.40;90.30
68358;DHT22;55276;53.260;50.222;2022-11-20T08:34:33;1.50;90.30
68358;DHT22;55276;53.260;50.222;2022-11-20T08:37:02;1.60;90.50
68358;DHT22;55276;53.260;50.222;2022-11-20T08:39:28;1.60;90.30
68358;DHT22;55276;53.260;50.222;2022-11-20T08:41:55;1.70;90.30
68358;DHT22;55276;53.260;50.222;2022-11-20T08:44:21;1.70;89.90
68358;DHT22;55276;53.260;50.222;2022-11-20T08:46:47;1.80;90.20
68358;DHT22;55276;53.260;50.222;2022-11-20T08:49:14;1.80;90.20
68358;DHT22;55276;53.260;50.222;2022-11-20T08:51:40;1.80;89.90
68358;DHT22;55276;53.260;50.222;2022-11-20T08:54:07;1.90;90.10
68358;DHT22;55276;53.260;50.222;2022-11-20T08:56:34;1.90;90.10
68358;DHT22;55276;53.260;50.222;2022-11-20T08:59:00;1.90;89.90
68358;DHT22;55276;53.260;50.222;2022-11-20T09:01:26;1.80;89.80
68358;DHT22;55276;53.260;50.222;2022-11-20T09:03:55;1.90;89.90
68358;DHT22;55276;53.260;50.222;2022-11-20T09:06:22;1.80;89.80
68358;DHT22;55276;53.260;50.222;2022-11-20T09:08:52;1.90;90.10
68358;DHT22;55276;53.260;50.222;2022-11-20T09:11:19;1.80;90.00
68358;DHT22;55276;53.260;50.222;2022-11-20T09:13:46;1.90;90.40
68358;DHT22;55276;53.260;50.222;2022-11-20T09:16:12;1.80;90.00
68358;DHT22;55276;53.260;50.222;2022-11-20T09:18:38;1.80;90.20
68358;DHT22;55276;53.260;50.222;2022-11-20T09:21:08;1.70;90.30
68358;DHT22;55276;53.260;50.222;2022-11-20T09:23:36;1.80;90.70
68358;DHT22;55276;53.260;50.222;2022-11-20T09:26:09;1.80;90.60
68358;DHT22;55276;53.260;50.222;2022-11-20T09:28:35;1.80;90.60
68358;DHT22;55276;53.260;50.222;2022-11-20T09:31:05;1.80;90.70
68358;DHT22;55276;53.260;50.222;2022-11-20T09:33:32;1.90;90.80
68358;DHT22;55276;53.260;50.222;2022-11-20T09:35:58;2.00;90.90
68358;DHT22;55276;53.260;50.222;2022-11-20T09:38:24;2.10;91.10
68358;DHT22;55276;53.260;50.222;2022-11-20T09:41:04;2.10;90.90
68358;DHT22;55276;53.260;50.222;2022-11-20T09:46:37;2.20;91.20
68358;DHT22;55276;53.260;50.222;2022-11-20T09:52:25;2.30;91.20
68358;DHT22;55276;53.260;50.222;2022-11-20T09:54:54;2.40;91.10
68358;DHT22;55276;53.260;50.222;2022-11-20T09:57:33;2.30;91.10
68358;DHT22;55276;53.260;50.222;2022-11-20T10:00:01;2.30;90.90
68358;DHT22;55276;53.260;50.222;2022-11-20T10:02:34;2.30;91.30
68358;DHT22;55276;53.260;50.222;2022-11-20T10:05:27;2.40;91.20
68358;DHT22;55276;53.260;50.222;2022-11-20T10:10:44;2.40;91.30
68358;DHT22;55276;53.260;50.222;2022-11-20T10:13:35;2.40;91.30
68358;DHT22;55276;53.260;50.222;2022-11-20T10:29:39;2.20;91.30
68358;DHT22;55276;53.260;50.222;2022-11-20T10:32:15;2.20;91.50
68358;DHT22;55276;53.260;50.222;2022-11-20T10:37:20;2.30;91.70
68358;DHT22;55276;53.260;50.222;2022-11-20T10:42:34;2.30;91.40
68358;DHT22;55276;53.260;50.222;2022-11-20T10:48:19;1.90;91.30
68358;DHT22;55276;53.260;50.222;2022-11-20T10:53:58;1.90;91.60
68358;DHT22;55276;53.260;50.222;2022-11-20T10:56:33;1.90;91.70
68358;DHT22;55276;53.260;50.222;2022-11-20T11:01:30;1.80;91.50
68358;DHT22;55276;53.260;50.222;2022-11-20T11:03:57;1.80;91.50
68358;DHT22;55276;53.260;50.222;2022-11-20T11:06:42;1.70;91.50
68358;DHT22;55276;53.260;50.222;2022-11-20T11:09:15;1.60;91.50
68358;DHT22;55276;53.260;50.222;2022-11-20T11:11:42;1.60;91.40
68358;DHT22;55276;53.260;50.222;2022-11-20T11:14:13;1.50;91.40
68358;DHT22;55276;53.260;50.222;2022-11-20T11:16:50;1.50;91.50
68358;DHT22;55276;53.260;50.222;2022-11-20T11:19:17;1.50;91.50
68358;DHT22;55276;53.260;50.222;2022-11-20T11:21:50;1.40;91.40
68358;DHT22;55276;53.260;50.222;2022-11-20T11:24:28;1.50;91.40
68358;DHT22;55276;53.260;50.222;2022-11-20T11:27:04;1.60;91.60
68358;DHT22;55276;53.260;50.222;2022-11-20T11:29:36;1.50;91.50
68358;DHT22;55276;53.260;50.222;2022-11-20T11:32:07;1.50;91.50
68358;DHT22;55276;53.260;50.222;2022-11-20T11:34:34;1.50;91.30
68358;DHT22;55276;53.260;50.222;2022-11-20T11:37:01;1.40;91.20
68358;DHT22;55276;53.260;50.222;2022-11-20T11:39:31;1.30;91.10
68358;DHT22;55276;53.260;50.222;2022-11-20T11:41:59;1.30;91.00
68358;DHT22;55276;53.260;50.222;2022-11-20T11:44:32;1.30;91.10
68358;DHT22;55276;53.260;50.222;2022-11-20T11:47:26;1.30;91.20
68358;DHT22;55276;53.260;50.222;2022-11-20T11:52:51;1.30;91.00
68358;DHT22;55276;53.260;50.222;2022-11-20T11:55:36;1.30;91.10
68358;DHT22;55276;53.260;50.222;2022-11-20T11:58:09;1.40;91.10
68358;DHT22;55276;53.260;50.222;2022-11-20T12:00:40;1.30;91.00
68358;DHT22;55276;53.260;50.222;2022-11-20T12:03:18;1.40;91.30
68358;DHT22;55276;53.260;50.222;2022-11-20T12:05:54;1.40;91.10
68358;DHT22;55276;53.260;50.222;2022-11-20T12:08:46;1.30;90.90
68358;DHT22;55276;53.260;50.222;2022-11-20T12:11:19;1.40;91.00
68358;DHT22;55276;53.260;50.222;2022-11-20T12:14:30;1.50;91.20
68358;DHT22;55276;53.260;50.222;2022-11-20T12:16:35;1.50;90.90
68358;DHT22;55276;53.260;50.222;2022-11-20T12:19:12;1.30;90.80
68358;DHT22;55276;53.260;50.222;2022-11-20T12:22:04;1.30;90.70
68358;DHT22;55276;53.260;50.222;2022-11-20T12:24:44;1.20;90.50
68358;DHT22;55276;53.260;50.222;2022-11-20T12:30:11;1.00;90.30
68358;DHT22;55276;53.260;50.222;2022-11-20T12:32:45;0.90;90.30
68358;DHT22;55276;53.260;50.222;2022-11-20T12:43:28;0.90;90.70
68358;DHT22;55276;53.260;50.222;2022-11-20T12:49:11;1.00;90.90
68358;DHT22;55276;53.260;50.222;2022-11-20T13:00:09;0.90;90.60
68358;DHT22;55276;53.260;50.222;2022-11-20T13:02:41;1.00;90.80
68358;DHT22;55276;53.260;50.222;2022-11-20T13:08:22;1.00;90.70
68358;DHT22;55276;53.260;50.222;2022-11-20T13:10:55;1.10;90.80
68358;DHT22;55276;53.260;50.222;2022-11-20T13:16:26;0.90;90.40
68358;DHT22;55276;53.260;50.222;2022-11-20T13:18:54;0.90;90.70
68358;DHT22;55276;53.260;50.222;2022-11-20T13:21:39;1.00;90.90
68358;DHT22;55276;53.260;50.222;2022-11-20T13:29:43;1.30;90.90
68358;DHT22;55276;53.260;50.222;2022-11-20T13:34:38;1.30;90.80
68358;DHT22;55276;53.260;50.222;2022-11-20T13:37:05;1.30;90.80
68358;DHT22;55276;53.260;50.222;2022-11-20T13:39:34;1.30;90.60
68358;DHT22;55276;53.260;50.222;2022-11-20T13:42:27;1.40;90.80
68358;DHT22;55276;53.260;50.222;2022-11-20T13:45:02;1.30;90.40
68358;DHT22;55276;53.260;50.222;2022-11-20T13:47:35;1.30;90.40
68358;DHT22;55276;53.260;50.222;2022-11-20T13:50:04;1.20;90.50
68358;DHT22;55276;53.260;50.222;2022-11-20T13:57:59;1.30;90.50
68358;DHT22;55276;53.260;50.222;2022-11-20T14:00:28;1.30;90.50
68358;DHT22;55276;53.260;50.222;2022-11-20T14:05:37;1.00;90.20
68358;DHT22;55276;53.260;50.222;2022-11-20T14:08:06;0.90;90.20
68358;DHT22;55276;53.260;50.222;2022-11-20T14:10:36;0.90;90.40
68358;DHT22;55276;53.260;50.222;2022-11-20T14:13:31;0.90;90.60
68358;DHT22;55276;53.260;50.222;2022-11-20T14:15:58;1.00;90.70
68358;DHT22;55276;53.260;50.222;2022-11-20T14:18:26;1.10;90.90
68358;DHT22;55276;53.260;50.222;2022-11-20T14:20:53;1.20;90.90
68358;DHT22;55276;53.260;50.222;2022-11-20T14:23:29;1.30;90.90
68358;DHT22;55276;53.260;50.222;2022-11-20T14:25:55;1.40;91.00
68358;DHT22;55276;53.260;50.222;2022-11-20T14:28:29;1.40;90.90
68358;DHT22;55276;53.260;50.222;2022-11-20T14:30:56;1.40;90.80
68358;DHT22;55276;53.260;50.222;2022-11-20T14:33:25;1.40;90.80
68358;DHT22;55276;53.260;50.222;2022-11-20T14:35:54;1.40;90.70
68358;DHT22;55276;53.260;50.222;2022-11-20T14:38:28;1.30;90.30
68358;DHT22;55276;53.260;50.222;2022-11-20T14:41:09;1.10;90.20
68358;DHT22;55276;53.260;50.222;2022-11-20T14:43:56;1.10;90.70
68358;DHT22;55276;53.260;50.222;2022-11-20T14:46:36;1.20;90.80
68358;DHT22;55276;53.260;50.222;2022-11-20T14:49:04;1.20;90.80
68358;DHT22;55276;53.260;50.222;2022-11-20T14:51:39;1.10;90.40
68358;DHT22;55276;53.260;50.222;2022-11-20T14:54:19;0.90;90.20
68358;DHT22;55276;53.260;50.222;2022-11-20T14:56:58;0.90;90.30
68358;DHT22;55276;53.260;50.222;2022-11-20T14:59:26;0.80;90.40
68358;DHT22;55276;53.260;50.222;2022-11-20T15:01:56;0.80;90.20
68358;DHT22;55276;53.260;50.222;2022-11-20T15:04:23;0.70;90.30
68358;DHT22;55276;53.260;50.222;2022-11-20T15:06:53;0.60;90.20
68358;DHT22;55276;53.260;50.222;2022-11-20T15:09:19;0.70;90.40
68358;DHT22;55276;53.260;50.222;2022-11-20T15:12:01;0.60;90.40
68358;DHT22;55276;53.260;50.222;2022-11-20T15:14:29;0.60;90.40
68358;DHT22;55276;53.260;50.222;2022-11-20T15:16:55;0.50;90.40
68358;DHT22;55276;53.260;50.222;2022-11-20T15:19:25;0.50;90.50
68358;DHT22;55276;53.260;50.222;2022-11-20T15:21:52;0.60;90.60
68358;DHT22;55276;53.260;50.222;2022-11-20T15:24:19;0.60;90.70
68358;DHT22;55276;53.260;50.222;2022-11-20T15:26:45;0.60;90.50
68358;DHT22;55276;53.260;50.222;2022-11-20T15:29:14;0.60;90.50
68358;DHT22;55276;53.260;50.222;2022-11-20T15:31:40;0.70;90.80
68358;DHT22;55276;53.260;50.222;2022-11-20T15:34:13;0.80;91.00
68358;DHT22;55276;53.260;50.222;2022-11-20T15:36:40;0.90;90.80
68358;DHT22;55276;53.260;50.222;2022-11-20T15:39:06;0.80;90.50
68358;DHT22;55276;53.260;50.222;2022-11-20T15:41:37;0.80;90.60
68358;DHT22;55276;53.260;50.222;2022-11-20T15:44:04;0.90;90.70
68358;DHT22;55276;53.260;50.222;2022-11-20T15:46:36;0.90;90.60
68358;DHT22;55276;53.260;50.222;2022-11-20T15:49:05;0.80;90.40
68358;DHT22;55276;53.260;50.222;2022-11-20T15:51:50;0.90;90.80
68358;DHT22;55276;53.260;50.222;2022-11-20T15:54:22;0.90;90.40
68358;DHT22;55276;53.260;50.222;2022-11-20T15:56:49;0.70;90.10
68358;DHT22;55276;53.260;50.222;2022-11-20T15:59:18;0.60;90.20
68358;DHT22;55276;53.260;50.222;2022-11-20T16:01:44;0.50;90.20
68358;DHT22;55276;53.260;50.222;2022-11-20T16:04:12;0.50;90.30
68358;DHT22;55276;53.260;50.222;2022-11-20T16:06:39;0.60;90.70
68358;DHT22;55276;53.260;50.222;2022-11-20T16:09:05;0.80;90.70
68358;DHT22;55276;53.260;50.222;2022-11-20T16:11:34;0.80;90.40
68358;DHT22;55276;53.260;50.222;2022-11-20T16:14:03;0.80;90.30
68358;DHT22;55276;53.260;50.222;2022-11-20T16:16:47;0.70;90.20
68358;DHT22;55276;53.260;50.222;2022-11-20T16:19:14;0.70;90.10
68358;DHT22;55276;53.260;50.222;2022-11-20T16:21:41;0.70;90.20
68358;DHT22;55276;53.260;50.222;2022-11-20T16:24:12;0.70;90.20
68358;DHT22;55276;53.260;50.222;2022-11-20T16:26:40;0.60;89.90
68358;DHT22;55276;53.260;50.222;2022-11-20T16:29:06;0.30;89.40
68358;DHT22;55276;53.260;50.222;2022-11-20T16:31:33;0.20;89.50
68358;DHT22;55276;53.260;50.222;2022-11-20T16:34:02;0.20;89.90
68358;DHT22;55276;53.260;50.222;2022-11-20T16:36:29;0.20;90.10
68358;DHT22;55276;53.260;50.222;2022-11-20T16:38:58;0.30;90.10
68358;DHT22;55276;53.260;50.222;2022-11-20T16:41:26;0.30;90.10
68358;DHT22;55276;53.260;50.222;2022-11-20T16:43:54;0.30;89.90
68358;DHT22;55276;53.260;50.222;2022-11-20T16:46:25;0.30;89.90
68358;DHT22;55276;53.260;50.222;2022-11-20T16:49:01;0.30;90.10
68358;DHT22;55276;53.260;50.222;2022-11-20T16:51:29;0.20;90.00
68358;DHT22;55276;53.260;50.222;2022-11-20T16:53:56;0.30;90.30
68358;DHT22;55276;53.260;50.222;2022-11-20T16:56:25;0.30;90.20
68358;DHT22;55276;53.260;50.222;2022-11-20T16:58:54;0.30;90.10
68358;DHT22;55276;53.260;50.222;2022-11-20T17:01:21;0.50;90.30
68358;DHT22;55276;53.260;50.222;2022-11-20T17:03:58;0.50;90.00
68358;DHT22;55276;53.260;50.222;2022-11-20T17:06:26;0.30;89.50